Time;durP1;ratioP1;P1;durP2;ratioP2;P2;SDS_P1;SDS_P2;PMS_P1;PMS_P2;Temp;Humidity;BMP_temperature;BMP_pressure;BME280_temperature;BME280_humidity;BME280_pressure;Samples;Min_cycle;Max_cycle;Signal;HPM_P1;HPM_P2
2023/12/15 00:01:51;;;;;;;19.25;9.52;;;;;;;;;;5107740;28;20054;-47
2023/12/15 00:04:18;;;;;;;14.13;8.98;;;;;;;;;;5107160;28;20020;-39
2023/12/15 00:06:45;;;;;;;19.25;8.93;;;;;;;;;;5105504;28;20028;-44
2023/12/15 00:09:11;;;;;;;13.95;8.63;;;;;;;;;;5106824;28;20031;-46
2023/12/15 00:11:38;;;;;;;13.30;8.32;;;;;;;;;;5107357;28;20020;-42
2023/12/15 00:14:05;;;;;;;14.13;7.95;;;;;;;;;;5106344;28;20074;-42
2023/12/15 00:16:31;;;;;;;11.88;7.55;;;;;;;;;;5107014;28;20300;-43
2023/12/15 00:18:59;;;;;;;12.65;7.90;;;;;;;;;;5105392;28;20247;-43
2023/12/15 00:21:26;;;;;;;15.20;8.88;;;;;;;;;;5107054;28;20032;-50
2023/12/15 00:23:53;;;;;;;13.27;8.73;;;;;;;;;;5106405;28;20016;-47
2023/12/15 00:26:20;;;;;;;13.60;8.45;;;;;;;;;;5106106;28;20300;-51
2023/12/15 00:28:46;;;;;;;11.27;7.57;;;;;;;;;;5106703;28;20059;-44
2023/12/15 00:31:13;;;;;;;10.75;7.93;;;;;;;;;;5107166;28;20084;-47
2023/12/15 00:33:40;;;;;;;14.68;8.43;;;;;;;;;;5107006;28;20020;-43
2023/12/15 00:36:06;;;;;;;10.88;8.13;;;;;;;;;;5107063;28;20261;-46
2023/12/15 00:38:33;;;;;;;10.57;8.02;;;;;;;;;;5106243;28;20030;-40
2023/12/15 00:41:02;;;;;;;15.60;8.68;;;;;;;;;;5107130;28;20066;-44
2023/12/15 00:43:29;;;;;;;11.68;7.97;;;;;;;;;;5106294;28;20023;-50
2023/12/15 00:45:56;;;;;;;8.65;7.45;;;;;;;;;;5106618;28;20028;-46
2023/12/15 00:48:22;;;;;;;13.60;8.68;;;;;;;;;;5106681;28;20069;-41
2023/12/15 00:50:49;;;;;;;9.52;8.20;;;;;;;;;;5106614;28;20054;-43
2023/12/15 00:53:15;;;;;;;10.68;8.40;;;;;;;;;;5106399;28;20016;-45
2023/12/15 00:55:45;;;;;;;10.90;8.30;;;;;;;;;;5106212;28;20027;-42
2023/12/15 00:58:11;;;;;;;8.43;7.60;;;;;;;;;;5106466;28;20032;-43
2023/12/15 01:00:38;;;;;;;12.30;8.20;;;;;;;;;;5106065;28;20096;-45
2023/12/15 01:03:06;;;;;;;10.07;8.25;;;;;;;;;;5106450;28;20031;-42
2023/12/15 01:05:33;;;;;;;12.60;9.27;;;;;;;;;;5106396;28;20032;-41
2023/12/15 01:07:59;;;;;;;13.05;9.70;;;;;;;;;;5105849;28;20069;-46
2023/12/15 01:10:27;;;;;;;13.63;8.13;;;;;;;;;;5106159;28;20016;-46
2023/12/15 01:12:54;;;;;;;9.52;7.28;;;;;;;;;;5106006;28;20023;-50
2023/12/15 01:15:21;;;;;;;11.35;7.85;;;;;;;;;;5105989;28;20024;-42
2023/12/15 01:17:49;;;;;;;13.55;7.53;;;;;;;;;;5104956;28;20031;-37
2023/12/15 01:20:16;;;;;;;18.65;8.50;;;;;;;;;;5105562;28;20038;-42
2023/12/15 01:22:43;;;;;;;11.48;7.43;;;;;;;;;;5104886;28;20024;-40
2023/12/15 01:25:13;;;;;;;13.65;7.65;;;;;;;;;;5105110;28;20024;-40
2023/12/15 01:27:40;;;;;;;14.10;7.53;;;;;;;;;;5104751;28;20335;-47
2023/12/15 01:30:07;;;;;;;13.70;7.20;;;;;;;;;;5104942;28;20319;-44
2023/12/15 01:32:36;;;;;;;9.70;6.95;;;;;;;;;;5104985;28;20044;-43
2023/12/15 01:35:03;;;;;;;14.55;7.18;;;;;;;;;;5104963;28;20031;-50
2023/12/15 01:37:30;;;;;;;12.30;7.50;;;;;;;;;;5104279;28;20087;-51
2023/12/15 01:39:56;;;;;;;12.45;6.90;;;;;;;;;;5104711;28;20026;-48
2023/12/15 01:42:24;;;;;;;17.05;7.07;;;;;;;;;;5105608;28;20043;-45
2023/12/15 01:44:51;;;;;;;10.27;6.70;;;;;;;;;;5125765;28;20028;-49
2023/12/15 01:47:21;;;;;;;12.23;7.55;;;;;;;;;;5124921;28;20023;-47
2023/12/15 01:49:48;;;;;;;12.43;7.05;;;;;;;;;;5122907;28;20023;-59
2023/12/15 01:52:15;;;;;;;11.35;7.57;;;;;;;;;;5123000;28;20019;-57
2023/12/15 01:54:41;;;;;;;10.43;7.43;;;;;;;;;;5110903;28;20016;-57
2023/12/15 01:57:08;;;;;;;8.65;7.47;;;;;;;;;;5104754;28;20027;-57
2023/12/15 01:59:50;;;;;;;10.13;7.72;;;;;;;;;;5104076;28;20031;-56
2023/12/15 02:02:17;;;;;;;14.02;7.55;;;;;;;;;;5104336;28;20028;-58
2023/12/15 02:04:44;;;;;;;9.32;6.70;;;;;;;;;;5104124;28;20061;-52
2023/12/15 02:07:11;;;;;;;10.18;7.30;;;;;;;;;;5104204;28;20278;-54
2023/12/15 02:09:41;;;;;;;10.50;7.05;;;;;;;;;;5103941;28;20219;-52
2023/12/15 02:12:08;;;;;;;8.02;7.03;;;;;;;;;;5104555;28;20028;-52
2023/12/15 02:14:34;;;;;;;7.20;6.53;;;;;;;;;;5104130;28;20020;-54
2023/12/15 02:17:01;;;;;;;7.75;6.43;;;;;;;;;;5104565;28;20016;-53
2023/12/15 02:19:28;;;;;;;8.27;6.40;;;;;;;;;;5103818;28;20055;-58
2023/12/15 02:21:54;;;;;;;10.85;6.85;;;;;;;;;;5104517;28;20026;-59
2023/12/15 02:24:21;;;;;;;12.88;6.88;;;;;;;;;;5103385;28;20041;-56
2023/12/15 02:26:48;;;;;;;9.85;6.10;;;;;;;;;;5104222;28;20055;-56
2023/12/15 02:29:16;;;;;;;7.68;6.25;;;;;;;;;;5103802;28;20052;-56
2023/12/15 02:31:43;;;;;;;8.32;6.07;;;;;;;;;;5104307;28;20246;-52
2023/12/15 02:34:09;;;;;;;8.77;6.50;;;;;;;;;;5104191;28;20264;-52
2023/12/15 02:36:36;;;;;;;9.88;6.13;;;;;;;;;;5103129;28;20268;-53
2023/12/15 02:39:02;;;;;;;8.77;6.53;;;;;;;;;;5107396;28;20054;-58
2023/12/15 02:41:32;;;;;;;9.43;6.28;;;;;;;;;;5108722;28;20032;-51
2023/12/15 02:44:00;;;;;;;11.90;6.22;;;;;;;;;;5106943;28;20036;-54
2023/12/15 02:46:31;;;;;;;10.73;6.05;;;;;;;;;;5108406;28;20035;-58
2023/12/15 02:48:57;;;;;;;8.70;6.10;;;;;;;;;;5107804;28;20205;-60
2023/12/15 02:51:30;;;;;;;10.75;6.15;;;;;;;;;;5108260;28;20300;-54
2023/12/15 02:54:00;;;;;;;9.30;5.95;;;;;;;;;;5099234;28;20044;-54
2023/12/15 02:56:27;;;;;;;7.97;6.20;;;;;;;;;;5108302;28;20032;-57
2023/12/15 02:58:53;;;;;;;7.85;5.97;;;;;;;;;;5107671;28;20148;-56
2023/12/15 03:01:20;;;;;;;8.07;6.10;;;;;;;;;;5108083;28;20304;-50
2023/12/15 03:03:47;;;;;;;6.60;5.45;;;;;;;;;;5107493;28;20039;-55
2023/12/15 03:06:15;;;;;;;7.25;5.93;;;;;;;;;;5106049;28;20027;-51
2023/12/15 03:08:42;;;;;;;10.50;5.80;;;;;;;;;;5101573;28;20024;-59
2023/12/15 03:11:08;;;;;;;7.53;5.82;;;;;;;;;;5106123;28;20027;-55
2023/12/15 03:13:39;;;;;;;8.82;5.68;;;;;;;;;;5107491;28;20020;-53
2023/12/15 03:16:14;;;;;;;6.28;5.35;;;;;;;;;;5101291;28;20301;-54
2023/12/15 03:18:41;;;;;;;6.68;5.30;;;;;;;;;;5087030;28;20447;-54
2023/12/15 03:21:08;;;;;;;7.60;5.78;;;;;;;;;;5085727;28;20178;-57
2023/12/15 03:23:34;;;;;;;9.85;5.38;;;;;;;;;;5085315;28;20332;-54
2023/12/15 03:26:03;;;;;;;9.43;5.75;;;;;;;;;;5090037;28;20324;-58
2023/12/15 03:28:30;;;;;;;8.48;5.60;;;;;;;;;;5103554;28;20107;-54
2023/12/15 03:30:57;;;;;;;12.65;6.07;;;;;;;;;;5105738;28;20059;-55
2023/12/15 03:33:27;;;;;;;9.80;5.57;;;;;;;;;;5105338;28;20051;-57
2023/12/15 03:35:53;;;;;;;6.38;5.25;;;;;;;;;;5106673;28;20028;-59
2023/12/15 03:38:21;;;;;;;6.78;5.35;;;;;;;;;;5107023;28;20039;-56
2023/12/15 03:40:47;;;;;;;6.78;5.72;;;;;;;;;;5106480;28;20097;-58
2023/12/15 03:43:14;;;;;;;8.85;5.78;;;;;;;;;;5107048;28;20091;-59
2023/12/15 03:45:41;;;;;;;6.75;5.90;;;;;;;;;;5106034;28;20028;-51
2023/12/15 03:48:07;;;;;;;6.30;5.47;;;;;;;;;;5106561;28;20033;-49
2023/12/15 03:50:34;;;;;;;6.70;5.78;;;;;;;;;;5105961;28;20020;-52
2023/12/15 03:53:01;;;;;;;7.47;5.75;;;;;;;;;;5106771;28;20085;-51
2023/12/15 03:55:27;;;;;;;6.55;5.95;;;;;;;;;;5106760;28;20012;-58
2023/12/15 03:57:54;;;;;;;6.45;5.50;;;;;;;;;;5106785;28;20036;-60
2023/12/15 04:00:21;;;;;;;6.78;5.88;;;;;;;;;;5106791;28;20217;-62
2023/12/15 04:02:48;;;;;;;6.32;5.75;;;;;;;;;;5106497;28;20054;-61
2023/12/15 04:05:14;;;;;;;5.85;5.25;;;;;;;;;;5106586;28;20069;-60
2023/12/15 04:07:41;;;;;;;7.32;5.82;;;;;;;;;;5106449;28;20055;-63
2023/12/15 04:10:09;;;;;;;7.50;5.80;;;;;;;;;;5099218;28;20020;-56
2023/12/15 04:12:35;;;;;;;7.03;5.63;;;;;;;;;;5101260;28;20020;-58
2023/12/15 04:15:02;;;;;;;10.32;5.57;;;;;;;;;;5106309;28;20032;-59
2023/12/15 04:17:29;;;;;;;6.22;5.43;;;;;;;;;;5106185;28;20034;-55
2023/12/15 04:19:55;;;;;;;6.38;5.43;;;;;;;;;;5106235;28;20015;-56
2023/12/15 04:22:22;;;;;;;7.68;5.82;;;;;;;;;;5106266;28;20065;-56
2023/12/15 04:24:54;;;;;;;7.43;5.60;;;;;;;;;;5105917;28;20012;-57
2023/12/15 04:27:20;;;;;;;5.85;5.25;;;;;;;;;;5106287;28;20096;-58
2023/12/15 04:29:47;;;;;;;7.50;5.28;;;;;;;;;;5105913;28;20055;-53
2023/12/15 04:32:14;;;;;;;7.53;5.47;;;;;;;;;;5105872;28;20193;-60
2023/12/15 04:34:41;;;;;;;6.88;5.53;;;;;;;;;;5105925;28;20023;-60
2023/12/15 04:37:07;;;;;;;7.38;5.68;;;;;;;;;;5106491;28;20032;-58
2023/12/15 04:39:34;;;;;;;6.07;5.28;;;;;;;;;;5105785;28;20020;-59
2023/12/15 04:42:01;;;;;;;6.60;5.50;;;;;;;;;;5106253;28;20055;-59
2023/12/15 04:44:27;;;;;;;6.93;5.47;;;;;;;;;;5105746;28;20024;-59
2023/12/15 04:46:55;;;;;;;6.28;5.32;;;;;;;;;;5106038;28;20016;-58
2023/12/15 04:49:22;;;;;;;6.78;5.95;;;;;;;;;;5105640;28;20028;-58
2023/12/15 04:51:49;;;;;;;6.13;5.35;;;;;;;;;;5106076;28;20227;-59
2023/12/15 04:54:16;;;;;;;8.13;5.40;;;;;;;;;;5105501;28;20024;-59
2023/12/15 04:56:44;;;;;;;6.10;5.15;;;;;;;;;;5105924;28;20020;-54
2023/12/15 04:59:12;;;;;;;7.63;5.38;;;;;;;;;;5105466;28;20272;-57
2023/12/15 05:01:38;;;;;;;6.75;5.60;;;;;;;;;;5105601;28;20050;-59
2023/12/15 05:04:05;;;;;;;7.43;5.25;;;;;;;;;;5105554;28;20034;-55
2023/12/15 05:06:31;;;;;;;9.18;5.85;;;;;;;;;;5105998;28;20034;-60
2023/12/15 05:08:58;;;;;;;6.63;5.85;;;;;;;;;;5105072;28;20016;-60
2023/12/15 05:11:26;;;;;;;7.68;5.80;;;;;;;;;;5105551;28;20084;-55
2023/12/15 05:13:52;;;;;;;6.18;5.55;;;;;;;;;;5105207;28;20118;-58
2023/12/15 05:16:21;;;;;;;6.78;5.43;;;;;;;;;;5105313;28;20191;-57
2023/12/15 05:19:14;;;;;;;6.28;5.50;;;;;;;;;;5105128;28;20070;-58
2023/12/15 05:21:46;;;;;;;6.50;5.20;;;;;;;;;;5105312;28;20028;-56
2023/12/15 05:24:13;;;;;;;6.53;5.32;;;;;;;;;;5105322;28;20028;-55
2023/12/15 05:26:39;;;;;;;5.68;5.18;;;;;;;;;;5105263;28;20069;-56
2023/12/15 05:29:06;;;;;;;6.72;5.38;;;;;;;;;;5104627;28;20093;-56
2023/12/15 05:31:33;;;;;;;8.10;5.10;;;;;;;;;;5105295;28;20020;-53
2023/12/15 05:33:59;;;;;;;8.20;5.32;;;;;;;;;;5104939;28;20336;-51
2023/12/15 05:36:26;;;;;;;5.35;4.85;;;;;;;;;;5104577;28;20061;-55
2023/12/15 05:38:53;;;;;;;7.55;5.22;;;;;;;;;;5104742;28;20024;-53
2023/12/15 05:41:22;;;;;;;5.80;4.88;;;;;;;;;;5105078;28;20020;-50
2023/12/15 05:43:50;;;;;;;5.90;4.70;;;;;;;;;;5104611;28;20020;-54
2023/12/15 05:46:19;;;;;;;6.25;5.15;;;;;;;;;;5105027;28;20058;-50
2023/12/15 05:48:46;;;;;;;5.55;5.05;;;;;;;;;;5104442;28;20031;-51
2023/12/15 05:51:13;;;;;;;6.20;5.07;;;;;;;;;;5104872;28;20181;-50
2023/12/15 05:53:39;;;;;;;6.45;4.43;;;;;;;;;;5104466;28;20024;-46
2023/12/15 05:56:06;;;;;;;6.97;5.20;;;;;;;;;;5104836;28;20024;-56
2023/12/15 05:58:33;;;;;;;6.75;4.90;;;;;;;;;;5104415;28;20024;-47
2023/12/15 06:01:00;;;;;;;5.30;4.80;;;;;;;;;;5104940;28;20043;-49
2023/12/15 06:03:26;;;;;;;5.40;4.90;;;;;;;;;;5104437;28;20051;-48
2023/12/15 06:05:53;;;;;;;6.88;4.75;;;;;;;;;;5104549;28;20023;-49
2023/12/15 06:08:20;;;;;;;5.40;4.70;;;;;;;;;;5104361;28;20328;-52
2023/12/15 06:10:48;;;;;;;5.85;4.85;;;;;;;;;;5104456;28;20016;-50
2023/12/15 06:13:15;;;;;;;5.43;4.22;;;;;;;;;;5103617;28;20047;-48
2023/12/15 06:15:42;;;;;;;5.88;4.72;;;;;;;;;;5104323;28;20263;-46
2023/12/15 06:18:08;;;;;;;5.80;4.55;;;;;;;;;;5104350;28;20327;-47
2023/12/15 06:20:36;;;;;;;6.20;4.70;;;;;;;;;;5104309;28;20028;-47
2023/12/15 06:23:03;;;;;;;5.75;4.38;;;;;;;;;;5104381;28;20220;-55
2023/12/15 06:25:29;;;;;;;5.57;4.55;;;;;;;;;;5104073;28;20022;-56
2023/12/15 06:27:56;;;;;;;5.22;4.72;;;;;;;;;;5103797;28;20051;-46
2023/12/15 06:30:23;;;;;;;7.07;5.10;;;;;;;;;;5104134;28;20069;-46
2023/12/15 06:32:49;;;;;;;5.75;4.70;;;;;;;;;;5104019;28;20042;-47
2023/12/15 06:35:17;;;;;;;6.97;4.50;;;;;;;;;;5104018;28;20035;-47
2023/12/15 06:37:44;;;;;;;6.63;4.57;;;;;;;;;;5103932;28;20028;-55
2023/12/15 06:40:10;;;;;;;8.25;4.70;;;;;;;;;;5103947;28;20028;-54
2023/12/15 06:42:37;;;;;;;5.57;4.30;;;;;;;;;;5103888;28;20348;-49
2023/12/15 06:45:07;;;;;;;5.00;4.50;;;;;;;;;;5103777;28;20073;-50
2023/12/15 06:47:35;;;;;;;6.03;4.72;;;;;;;;;;5103762;28;20028;-57
2023/12/15 06:50:02;;;;;;;7.13;4.55;;;;;;;;;;5103707;28;20026;-46
2023/12/15 06:52:28;;;;;;;5.40;4.53;;;;;;;;;;5103779;28;20024;-52
2023/12/15 06:54:55;;;;;;;5.53;4.85;;;;;;;;;;5104062;28;20039;-49
2023/12/15 06:57:22;;;;;;;6.03;4.82;;;;;;;;;;5103726;28;20137;-48
2023/12/15 06:59:48;;;;;;;7.28;4.95;;;;;;;;;;5103703;28;20236;-53
2023/12/15 07:02:15;;;;;;;5.20;4.70;;;;;;;;;;5103860;28;20055;-47
2023/12/15 07:04:41;;;;;;;5.78;4.57;;;;;;;;;;5103752;28;20016;-48
2023/12/15 07:07:08;;;;;;;6.03;4.50;;;;;;;;;;5104167;28;20094;-47
2023/12/15 07:09:34;;;;;;;5.78;4.63;;;;;;;;;;5103823;28;20304;-53
2023/12/15 07:12:02;;;;;;;5.07;4.60;;;;;;;;;;5104236;28;20033;-46
2023/12/15 07:14:32;;;;;;;6.85;5.05;;;;;;;;;;5103852;28;20439;-51
2023/12/15 07:16:58;;;;;;;6.05;4.93;;;;;;;;;;5104036;28;20079;-47
2023/12/15 07:19:25;;;;;;;6.72;4.95;;;;;;;;;;5103604;28;20020;-51
2023/12/15 07:21:52;;;;;;;6.05;4.93;;;;;;;;;;5104103;28;20027;-49
2023/12/15 07:24:18;;;;;;;7.70;4.25;;;;;;;;;;5104545;28;20374;-51
2023/12/15 07:26:45;;;;;;;5.00;4.38;;;;;;;;;;5107684;28;20051;-47
2023/12/15 07:29:12;;;;;;;6.20;4.70;;;;;;;;;;5107066;28;20090;-47
2023/12/15 07:31:38;;;;;;;7.95;5.05;;;;;;;;;;5107610;28;20016;-54
2023/12/15 07:34:05;;;;;;;7.05;4.80;;;;;;;;;;5107310;28;20019;-52
2023/12/15 07:36:32;;;;;;;7.25;4.40;;;;;;;;;;5107330;28;20031;-47
2023/12/15 07:38:58;;;;;;;10.25;5.28;;;;;;;;;;5107192;28;20030;-48
2023/12/15 07:41:25;;;;;;;8.30;4.97;;;;;;;;;;5107535;28;20307;-48
2023/12/15 07:43:52;;;;;;;7.72;5.20;;;;;;;;;;5106863;28;20031;-52
2023/12/15 07:46:19;;;;;;;5.95;5.10;;;;;;;;;;5107367;28;20028;-50
2023/12/15 07:48:46;;;;;;;5.88;5.15;;;;;;;;;;5106899;28;20027;-48
2023/12/15 07:51:16;;;;;;;5.57;4.93;;;;;;;;;;5107042;28;20044;-49
2023/12/15 07:53:43;;;;;;;8.50;4.97;;;;;;;;;;5107060;28;20031;-50
2023/12/15 07:56:10;;;;;;;8.55;5.50;;;;;;;;;;5107159;28;20230;-54
2023/12/15 07:58:36;;;;;;;7.18;5.30;;;;;;;;;;5106584;28;20065;-54
2023/12/15 08:01:03;;;;;;;7.38;5.40;;;;;;;;;;5107068;28;20088;-54
2023/12/15 08:03:30;;;;;;;9.68;5.43;;;;;;;;;;5106743;28;20303;-51
2023/12/15 08:05:56;;;;;;;5.55;5.05;;;;;;;;;;5106786;28;20312;-48
2023/12/15 08:08:23;;;;;;;6.68;5.40;;;;;;;;;;5106628;28;20056;-47
2023/12/15 08:10:50;;;;;;;6.97;5.40;;;;;;;;;;5106778;28;20012;-54
2023/12/15 08:13:16;;;;;;;7.53;5.40;;;;;;;;;;5106234;28;20239;-52
2023/12/15 08:15:43;;;;;;;7.28;5.50;;;;;;;;;;5106589;28;20031;-49
2023/12/15 08:18:10;;;;;;;9.65;5.75;;;;;;;;;;5106388;28;20043;-45
2023/12/15 08:20:36;;;;;;;6.65;5.38;;;;;;;;;;5106358;28;20201;-49
2023/12/15 08:23:03;;;;;;;8.52;5.85;;;;;;;;;;5106382;28;20051;-45
2023/12/15 08:25:30;;;;;;;6.13;5.53;;;;;;;;;;5106383;28;20050;-50
2023/12/15 08:27:56;;;;;;;6.88;5.57;;;;;;;;;;5105720;28;20044;-49
2023/12/15 08:30:23;;;;;;;5.80;5.20;;;;;;;;;;5106273;28;20322;-47
2023/12/15 08:32:50;;;;;;;7.18;5.47;;;;;;;;;;5106101;28;20016;-46
2023/12/15 08:35:16;;;;;;;5.85;5.25;;;;;;;;;;5105458;28;20020;-47
2023/12/15 08:37:46;;;;;;;6.03;5.43;;;;;;;;;;5105950;28;20059;-45
2023/12/15 08:40:13;;;;;;;6.53;5.80;;;;;;;;;;5106099;28;20028;-49
2023/12/15 08:42:39;;;;;;;7.05;5.60;;;;;;;;;;5105785;28;20028;-51
2023/12/15 08:45:07;;;;;;;7.13;6.10;;;;;;;;;;5105897;28;20028;-51
2023/12/15 08:47:34;;;;;;;8.05;5.53;;;;;;;;;;5105684;28;20024;-49
2023/12/15 08:50:00;;;;;;;8.95;5.10;;;;;;;;;;5105612;28;20066;-46
2023/12/15 08:52:27;;;;;;;8.40;5.43;;;;;;;;;;5105658;28;20031;-52
2023/12/15 08:54:54;;;;;;;6.18;5.57;;;;;;;;;;5105696;28;20016;-46
2023/12/15 08:57:20;;;;;;;8.43;5.47;;;;;;;;;;5105487;28;20077;-48
2023/12/15 08:59:47;;;;;;;6.72;5.22;;;;;;;;;;5105484;28;20020;-47
2023/12/15 09:02:14;;;;;;;6.10;5.40;;;;;;;;;;5105671;28;20087;-50
2023/12/15 09:04:40;;;;;;;6.68;5.43;;;;;;;;;;5105411;28;20066;-51
2023/12/15 09:07:07;;;;;;;6.05;5.30;;;;;;;;;;5105904;28;20047;-54
2023/12/15 09:09:40;;;;;;;7.18;5.10;;;;;;;;;;5105358;28;20020;-53
2023/12/15 09:12:08;;;;;;;7.20;5.45;;;;;;;;;;5105621;28;20300;-47
2023/12/15 09:14:34;;;;;;;6.78;5.03;;;;;;;;;;5105158;28;20239;-46
2023/12/15 09:17:02;;;;;;;6.47;5.35;;;;;;;;;;5105739;28;20255;-45
2023/12/15 09:19:29;;;;;;;6.00;5.05;;;;;;;;;;5104969;28;20104;-49
2023/12/15 09:21:56;;;;;;;6.30;5.35;;;;;;;;;;5105607;28;20079;-49
2023/12/15 09:24:22;;;;;;;11.35;5.15;;;;;;;;;;5105147;28;20032;-48
2023/12/15 09:26:49;;;;;;;7.53;5.40;;;;;;;;;;5105254;28;20024;-48
2023/12/15 09:29:18;;;;;;;6.45;5.50;;;;;;;;;;5104847;28;20071;-49
2023/12/15 09:31:45;;;;;;;5.90;5.30;;;;;;;;;;5105316;28;20028;-49
2023/12/15 09:34:12;;;;;;;5.97;5.07;;;;;;;;;;5099159;28;20305;-50
2023/12/15 09:36:38;;;;;;;6.45;5.15;;;;;;;;;;5091675;28;20271;-52
2023/12/15 09:39:05;;;;;;;7.18;5.78;;;;;;;;;;5084502;28;20090;-46
2023/12/15 09:41:32;;;;;;;6.15;5.15;;;;;;;;;;5084667;28;20036;-49
2023/12/15 09:43:59;;;;;;;7.55;5.53;;;;;;;;;;5084470;28;20032;-45
2023/12/15 09:46:26;;;;;;;6.63;5.40;;;;;;;;;;5084328;28;20366;-51
2023/12/15 09:48:53;;;;;;;5.72;5.10;;;;;;;;;;5083835;28;20096;-47
2023/12/15 09:51:23;;;;;;;7.50;5.70;;;;;;;;;;5084691;28;20083;-48
2023/12/15 09:53:50;;;;;;;7.47;5.78;;;;;;;;;;5084205;28;20091;-47
2023/12/15 09:56:17;;;;;;;6.03;5.40;;;;;;;;;;5084421;28;20200;-45
2023/12/15 09:58:43;;;;;;;8.23;5.85;;;;;;;;;;5084197;28;20032;-47
2023/12/15 10:01:13;;;;;;;6.47;5.25;;;;;;;;;;5084467;28;20338;-45
2023/12/15 10:03:40;;;;;;;6.40;5.65;;;;;;;;;;5083977;28;20036;-46
2023/12/15 10:06:07;;;;;;;7.50;5.40;;;;;;;;;;5084301;28;20024;-47
2023/12/15 10:08:41;;;;;;;6.55;5.57;;;;;;;;;;5084207;28;20096;-50
2023/12/15 10:11:07;;;;;;;7.30;5.65;;;;;;;;;;5084221;28;20257;-55
2023/12/15 10:13:34;;;;;;;7.45;5.35;;;;;;;;;;5083939;28;20067;-50
2023/12/15 10:16:01;;;;;;;5.57;4.97;;;;;;;;;;5084265;28;20016;-46
2023/12/15 10:18:28;;;;;;;6.00;5.05;;;;;;;;;;5083842;28;20039;-55
2023/12/15 10:20:55;;;;;;;6.18;4.95;;;;;;;;;;5095403;28;20331;-48
2023/12/15 10:23:28;;;;;;;6.85;5.88;;;;;;;;;;5084082;28;20028;-53
2023/12/15 10:25:55;;;;;;;5.43;4.93;;;;;;;;;;5084078;28;20032;-57
2023/12/15 10:28:22;;;;;;;7.97;5.10;;;;;;;;;;5083718;28;20048;-47
2023/12/15 10:30:52;;;;;;;5.90;5.38;;;;;;;;;;5084694;28;20028;-50
2023/12/15 10:33:21;;;;;;;6.25;5.40;;;;;;;;;;5083628;28;20025;-49
2023/12/15 10:35:48;;;;;;;7.32;5.60;;;;;;;;;;5083939;28;20035;-54
2023/12/15 10:38:15;;;;;;;7.00;5.50;;;;;;;;;;5083726;28;20051;-48
2023/12/15 10:40:43;;;;;;;9.52;5.28;;;;;;;;;;5083750;28;20028;-46
2023/12/15 10:43:10;;;;;;;17.15;6.07;;;;;;;;;;5083814;28;20037;-50
2023/12/15 10:45:37;;;;;;;13.23;6.20;;;;;;;;;;5083790;28;20034;-50
2023/12/15 10:48:04;;;;;;;17.95;6.43;;;;;;;;;;5083415;28;20028;-50
2023/12/15 10:50:31;;;;;;;16.95;6.03;;;;;;;;;;5083713;28;20017;-51
2023/12/15 10:52:58;;;;;;;20.25;6.15;;;;;;;;;;5083910;28;20062;-54
2023/12/15 10:55:25;;;;;;;10.55;5.97;;;;;;;;;;5083556;28;20044;-48
2023/12/15 10:57:52;;;;;;;15.43;6.05;;;;;;;;;;5083892;28;20060;-55
2023/12/15 11:00:19;;;;;;;12.13;6.85;;;;;;;;;;5089359;28;20048;-50
2023/12/15 11:02:49;;;;;;;16.17;6.32;;;;;;;;;;5087374;28;20036;-47
2023/12/15 11:05:16;;;;;;;15.60;6.38;;;;;;;;;;5087707;28;20032;-52
2023/12/15 11:07:43;;;;;;;16.35;7.53;;;;;;;;;;5087544;28;20216;-50
2023/12/15 11:10:12;;;;;;;21.80;17.27;;;;;;;;;;5103219;28;20024;-49
2023/12/15 11:12:41;;;;;;;50.78;23.55;;;;;;;;;;5097822;28;20255;-48
2023/12/15 11:15:08;;;;;;;46.53;20.80;;;;;;;;;;5100632;28;20026;-52
2023/12/15 11:17:38;;;;;;;34.63;22.15;;;;;;;;;;5099203;28;20024;-49
2023/12/15 11:20:06;;;;;;;38.20;21.83;;;;;;;;;;5087234;28;20044;-55
2023/12/15 11:22:49;;;;;;;32.33;22.60;;;;;;;;;;5107042;28;20028;-57
2023/12/15 11:25:25;;;;;;;29.27;19.73;;;;;;;;;;5107410;28;20020;-49
2023/12/15 11:28:01;;;;;;;32.95;16.30;;;;;;;;;;5106867;28;20339;-52
2023/12/15 11:30:28;;;;;;;29.45;18.38;;;;;;;;;;5106921;28;20055;-48
2023/12/15 11:32:55;;;;;;;33.95;19.35;;;;;;;;;;5107127;28;20095;-52
2023/12/15 11:35:29;;;;;;;28.80;18.63;;;;;;;;;;5093754;28;20031;-52
2023/12/15 11:37:57;;;;;;;43.03;28.33;;;;;;;;;;5086847;28;20073;-53
2023/12/15 11:40:24;;;;;;;36.90;25.05;;;;;;;;;;5086810;28;20096;-60
2023/12/15 11:42:51;;;;;;;29.98;19.55;;;;;;;;;;5086748;28;20028;-54
2023/12/15 11:45:19;;;;;;;21.90;15.07;;;;;;;;;;5086967;28;20024;-61
2023/12/15 11:47:45;;;;;;;25.83;17.15;;;;;;;;;;5086935;28;20298;-44
2023/12/15 11:50:14;;;;;;;23.65;13.70;;;;;;;;;;5087167;28;20028;-50
2023/12/15 11:52:41;;;;;;;19.23;11.20;;;;;;;;;;5084781;28;20016;-46
2023/12/15 11:55:08;;;;;;;15.82;9.68;;;;;;;;;;5085251;28;20028;-40
2023/12/15 11:57:37;;;;;;;18.98;8.80;;;;;;;;;;5085809;28;20316;-43
2023/12/15 12:00:05;;;;;;;16.85;9.18;;;;;;;;;;5086848;28;21221;-43
2023/12/15 12:02:31;;;;;;;16.65;8.50;;;;;;;;;;5086442;28;20028;-42
2023/12/15 12:04:59;;;;;;;16.40;8.20;;;;;;;;;;5086029;28;20105;-42
2023/12/15 12:07:25;;;;;;;16.63;6.75;;;;;;;;;;5084514;28;20029;-41
2023/12/15 12:09:52;;;;;;;14.60;6.97;;;;;;;;;;5085033;28;20044;-41
2023/12/15 12:12:19;;;;;;;14.18;6.82;;;;;;;;;;5086688;28;20362;-50
2023/12/15 12:14:46;;;;;;;13.85;6.72;;;;;;;;;;5086390;28;20092;-45
2023/12/15 12:17:13;;;;;;;12.50;6.60;;;;;;;;;;5086797;28;20021;-45
2023/12/15 12:19:43;;;;;;;18.40;7.07;;;;;;;;;;5086159;28;20021;-39
2023/12/15 12:22:11;;;;;;;19.83;7.43;;;;;;;;;;5082415;28;20046;-42
2023/12/15 12:24:38;;;;;;;16.98;7.15;;;;;;;;;;5086201;28;20024;-43
2023/12/15 12:27:10;;;;;;;17.55;8.57;;;;;;;;;;5086500;28;20029;-44
2023/12/15 12:29:40;;;;;;;18.95;7.90;;;;;;;;;;5086077;28;20072;-38
2023/12/15 12:32:07;;;;;;;12.90;7.57;;;;;;;;;;5086052;28;20088;-40
2023/12/15 12:34:34;;;;;;;16.40;7.65;;;;;;;;;;5085871;28;20055;-45
2023/12/15 12:37:01;;;;;;;11.68;7.20;;;;;;;;;;5086440;28;20084;-41
2023/12/15 12:39:28;;;;;;;10.20;6.75;;;;;;;;;;5085979;28;20040;-46
2023/12/15 12:41:54;;;;;;;14.57;6.80;;;;;;;;;;5086388;28;20020;-44
2023/12/15 12:44:21;;;;;;;10.43;6.40;;;;;;;;;;5086031;28;20043;-47
2023/12/15 12:46:48;;;;;;;11.15;5.78;;;;;;;;;;5086439;28;20258;-39
2023/12/15 12:49:16;;;;;;;9.75;6.13;;;;;;;;;;5085965;28;20073;-38
2023/12/15 12:51:42;;;;;;;9.65;5.80;;;;;;;;;;5086288;28;20083;-41
2023/12/15 12:54:09;;;;;;;11.05;6.30;;;;;;;;;;5085454;28;20336;-46
2023/12/15 12:56:36;;;;;;;10.27;5.60;;;;;;;;;;5085881;28;20031;-44
2023/12/15 12:59:02;;;;;;;12.35;6.03;;;;;;;;;;5085641;28;20035;-50
2023/12/15 13:01:29;;;;;;;8.40;5.50;;;;;;;;;;5085908;28;20036;-49
2023/12/15 13:03:56;;;;;;;9.98;6.10;;;;;;;;;;5085635;28;20483;-42
2023/12/15 13:06:23;;;;;;;10.02;6.00;;;;;;;;;;5085628;28;20035;-41
2023/12/15 13:08:50;;;;;;;10.38;6.10;;;;;;;;;;5085458;28;20040;-40
2023/12/15 13:11:16;;;;;;;11.65;5.82;;;;;;;;;;5085509;28;20296;-41
2023/12/15 13:13:44;;;;;;;12.55;6.43;;;;;;;;;;5085329;28;20040;-39
2023/12/15 13:16:13;;;;;;;9.38;5.80;;;;;;;;;;5086180;28;20079;-40
2023/12/15 13:18:42;;;;;;;11.13;6.07;;;;;;;;;;5085208;28;20032;-39
2023/12/15 13:21:10;;;;;;;8.38;5.47;;;;;;;;;;5085340;28;20032;-37
2023/12/15 13:23:37;;;;;;;8.27;5.68;;;;;;;;;;5085187;28;20250;-41
2023/12/15 13:26:05;;;;;;;11.98;6.30;;;;;;;;;;5085307;28;20085;-37
2023/12/15 13:28:35;;;;;;;7.03;5.57;;;;;;;;;;5084798;28;20086;-42
2023/12/15 13:31:04;;;;;;;10.73;5.78;;;;;;;;;;5085245;28;20020;-41
2023/12/15 13:33:30;;;;;;;10.45;6.32;;;;;;;;;;5085166;28;20027;-39
2023/12/15 13:35:57;;;;;;;12.48;6.05;;;;;;;;;;5085142;28;20044;-37
2023/12/15 13:38:26;;;;;;;13.63;7.07;;;;;;;;;;5084643;28;20032;-41
2023/12/15 13:40:54;;;;;;;9.57;6.97;;;;;;;;;;5084774;28;20301;-45
2023/12/15 13:43:21;;;;;;;8.18;6.03;;;;;;;;;;5084478;28;20198;-39
2023/12/15 13:45:47;;;;;;;9.35;6.55;;;;;;;;;;5084941;28;20146;-41
2023/12/15 13:48:14;;;;;;;15.70;7.05;;;;;;;;;;5084737;28;20059;-47
2023/12/15 13:50:41;;;;;;;10.40;6.97;;;;;;;;;;5084746;28;20200;-42
2023/12/15 13:53:07;;;;;;;11.73;7.72;;;;;;;;;;5084648;28;20039;-42
2023/12/15 13:55:34;;;;;;;10.73;7.07;;;;;;;;;;5084672;28;20020;-47
2023/12/15 13:58:01;;;;;;;8.88;7.60;;;;;;;;;;5084496;28;20039;-38
2023/12/15 14:00:27;;;;;;;7.53;6.68;;;;;;;;;;5084211;28;20134;-49
2023/12/15 14:02:55;;;;;;;9.75;7.57;;;;;;;;;;5084469;28;20048;-40
2023/12/15 14:05:23;;;;;;;10.63;8.07;;;;;;;;;;5084370;28;20017;-40
2023/12/15 14:07:50;;;;;;;10.48;7.15;;;;;;;;;;5084025;28;20040;-46
2023/12/15 14:10:16;;;;;;;9.27;7.47;;;;;;;;;;5084528;28;20066;-45
2023/12/15 14:12:43;;;;;;;11.45;7.57;;;;;;;;;;5084533;28;20089;-48
2023/12/15 14:15:10;;;;;;;13.13;7.10;;;;;;;;;;5084131;28;20074;-50
2023/12/15 14:17:37;;;;;;;12.18;6.97;;;;;;;;;;5084361;28;20112;-49
2023/12/15 14:20:07;;;;;;;10.02;6.93;;;;;;;;;;5084235;28;20025;-47
2023/12/15 14:22:34;;;;;;;8.55;6.30;;;;;;;;;;5083868;28;20044;-41
2023/12/15 14:25:04;;;;;;;8.60;6.28;;;;;;;;;;5084667;28;20291;-45
2023/12/15 14:27:35;;;;;;;9.52;6.70;;;;;;;;;;5084306;28;20028;-48
2023/12/15 14:30:02;;;;;;;10.48;6.50;;;;;;;;;;5084634;28;20024;-44
2023/12/15 14:32:28;;;;;;;9.55;6.22;;;;;;;;;;5084515;28;20032;-45
2023/12/15 14:34:55;;;;;;;12.20;7.03;;;;;;;;;;5084371;28;20059;-46
2023/12/15 14:37:22;;;;;;;8.75;6.80;;;;;;;;;;5084707;28;20037;-45
2023/12/15 14:39:49;;;;;;;9.45;6.38;;;;;;;;;;5084280;28;20073;-43